Artesia Wells, Texas
Current Conditions -  °F | °C
As of 4:53 PM on Friday 19 Dec 2014 (Local Time) from KCOT Reporting Station
Few Clouds Few Clouds  
Wind Chill: 19°   Ceiling: Unl
Heat Index: 19°   Visibility: 10mi
Dew Point: 11°   Wind: 7mph
Humidity: 57%   Direction: 40°NE
Pressure: 30.06"   Gusts: NA
Location:  28.28°N, 99.29°W
Report Text: KCOT 192253Z AUTO 04006KT 10SM FEW070 19/11 A3006 RMK AO2 SLP174 T01940106
Loading
Personal Weather Stations






























Interactive Weather Map New forecast layout! Learn more

10-Day Weather Forecast

Advertisements
Track Severe Weather on mobile